Time;durP1;ratioP1;P1;durP2;ratioP2;P2;SDS_P1;SDS_P2;PMS_P1;PMS_P2;Temp;Humidity;BMP_temperature;BMP_pressure;BME280_temperature;BME280_humidity;BME280_pressure;Samples;Min_cycle;Max_cycle;Signal;HPM_P1;HPM_P2
2021/01/19 00:04:12;;;;;;;6.78;1.92;;;6.10;99.90;;;;;;10356929;28;20060;-52
2021/01/19 00:09:33;;;;;;;14.43;2.17;;;6.30;99.90;;;;;;10367992;28;20155;-52
2021/01/19 00:14:54;;;;;;;5.75;1.05;;;6.10;99.90;;;;;;10357180;28;20052;-52
2021/01/19 00:20:15;;;;;;;16.83;3.00;;;6.20;99.90;;;;;;10357957;28;20046;-53
2021/01/19 00:25:36;;;;;;;3.92;1.30;;;6.20;99.90;;;;;;10365428;28;20481;-53
2021/01/19 00:30:57;;;;;;;2.50;1.35;;;6.10;99.90;;;;;;10360622;28;20459;-53
2021/01/19 00:36:18;;;;;;;5.50;1.23;;;6.20;99.90;;;;;;10363271;28;20050;-53
2021/01/19 00:41:39;;;;;;;6.88;0.90;;;6.10;99.90;;;;;;10364518;28;20042;-53
2021/01/19 00:47:00;;;;;;;2.92;0.90;;;6.10;99.90;;;;;;10363257;28;20050;-53
2021/01/19 00:52:21;;;;;;;4.65;1.83;;;6.10;99.90;;;;;;10365571;28;20701;-53
2021/01/19 00:57:46;;;;;;;1.38;0.82;;;6.10;99.90;;;;;;10363277;28;20628;-53
2021/01/19 01:03:07;;;;;;;3.22;0.77;;;6.00;99.90;;;;;;10361820;28;20037;-53
2021/01/19 01:08:28;;;;;;;2.03;0.80;;;6.00;99.90;;;;;;10361603;28;20049;-53
2021/01/19 01:13:49;;;;;;;5.05;1.33;;;6.00;99.90;;;;;;10364375;28;20430;-52
2021/01/19 01:19:10;;;;;;;1.83;0.55;;;6.00;99.90;;;;;;10363087;28;20065;-53
2021/01/19 01:24:31;;;;;;;1.67;0.43;;;5.90;99.90;;;;;;10362924;28;20053;-53
2021/01/19 01:29:52;;;;;;;6.65;1.13;;;5.90;99.90;;;;;;10365771;28;20462;-53
2021/01/19 01:35:13;;;;;;;0.80;0.52;;;5.90;99.90;;;;;;10370416;28;20037;-53
2021/01/19 01:40:35;;;;;;;1.80;0.93;;;5.80;99.90;;;;;;10371738;28;20151;-53
2021/01/19 01:45:57;;;;;;;1.65;0.85;;;5.80;99.90;;;;;;10369320;28;20052;-53
2021/01/19 01:51:18;;;;;;;3.38;0.80;;;5.70;99.90;;;;;;10367720;28;20508;-53
2021/01/19 01:56:39;;;;;;;2.97;1.13;;;5.70;99.90;;;;;;10366562;28;20686;-53
2021/01/19 02:02:12;;;;;;;2.35;0.82;;;5.70;99.90;;;;;;10372331;28;20042;-53
2021/01/19 02:07:44;;;;;;;2.33;1.10;;;5.60;99.90;;;;;;10379250;28;20136;-53
2021/01/19 02:13:34;;;;;;;3.45;1.73;;;5.60;99.90;;;;;;10365508;28;20033;-53
2021/01/19 02:19:33;;;;;;;1.80;0.75;;;5.60;99.90;;;;;;10368248;28;20037;-53
2021/01/19 02:25:05;;;;;;;3.53;0.70;;;5.60;99.90;;;;;;10370527;28;20050;-53
2021/01/19 02:30:48;;;;;;;1.67;0.80;;;5.60;99.90;;;;;;10366587;28;20686;-53
2021/01/19 02:36:32;;;;;;;2.28;1.00;;;5.60;99.90;;;;;;10367204;28;20095;-53
2021/01/19 02:41:53;;;;;;;3.20;0.88;;;5.50;99.90;;;;;;10365294;28;20541;-52
2021/01/19 02:47:15;;;;;;;2.75;0.98;;;5.40;99.90;;;;;;10364777;28;20435;-53
2021/01/19 02:52:37;;;;;;;6.78;0.70;;;5.30;99.90;;;;;;10379336;28;20045;-53
2021/01/19 02:58:19;;;;;;;3.90;1.65;;;5.30;99.90;;;;;;10364526;28;20143;-53
2021/01/19 03:03:40;;;;;;;2.63;0.73;;;5.20;99.90;;;;;;10368413;28;20757;-53
2021/01/19 03:09:02;;;;;;;2.90;0.68;;;5.20;99.90;;;;;;10383937;28;20037;-53
2021/01/19 03:14:24;;;;;;;2.22;1.35;;;5.10;99.90;;;;;;10367144;28;20042;-54
2021/01/19 03:19:47;;;;;;;2.72;1.27;;;5.00;99.90;;;;;;10367199;28;20056;-55
2021/01/19 03:25:09;;;;;;;7.40;2.08;;;5.00;99.90;;;;;;10365502;28;20140;-54
2021/01/19 03:30:30;;;;;;;3.60;1.17;;;5.00;99.90;;;;;;10376490;28;20076;-55
2021/01/19 03:35:51;;;;;;;2.90;1.00;;;4.90;99.90;;;;;;10368029;28;20045;-54
2021/01/19 03:41:12;;;;;;;6.30;2.00;;;5.00;99.90;;;;;;10361982;28;20478;-54
2021/01/19 03:46:33;;;;;;;3.25;1.58;;;4.90;99.90;;;;;;10366681;28;20054;-54
2021/01/19 03:51:54;;;;;;;8.43;1.95;;;5.00;99.90;;;;;;10359874;28;20046;-54
2021/01/19 03:57:15;;;;;;;4.68;1.90;;;5.00;99.90;;;;;;10366595;28;20072;-54
2021/01/19 04:02:36;;;;;;;4.38;2.25;;;5.00;99.90;;;;;;10363913;28;20111;-54
2021/01/19 04:07:57;;;;;;;3.92;2.25;;;5.10;99.90;;;;;;10361771;28;20824;-54
2021/01/19 04:13:18;;;;;;;4.40;2.05;;;5.20;99.90;;;;;;10376869;28;20545;-54
2021/01/19 04:18:39;;;;;;;6.22;2.92;;;5.20;99.90;;;;;;10363940;28;20406;-54
2021/01/19 04:24:00;;;;;;;5.03;1.92;;;5.10;99.90;;;;;;10367150;28;20958;-55
2021/01/19 04:29:23;;;;;;;5.97;2.47;;;5.10;99.90;;;;;;10362358;28;20045;-55
2021/01/19 04:34:44;;;;;;;8.13;3.17;;;5.20;99.90;;;;;;10361792;28;20038;-55
2021/01/19 04:40:07;;;;;;;5.65;2.08;;;5.20;99.90;;;;;;10364816;28;20570;-55
2021/01/19 04:45:28;;;;;;;6.35;3.15;;;5.20;99.90;;;;;;10378706;28;20063;-56
2021/01/19 04:50:50;;;;;;;7.65;2.90;;;5.20;99.90;;;;;;10359401;28;20038;-55
2021/01/19 04:56:19;;;;;;;5.43;2.13;;;5.30;99.90;;;;;;10361691;28;20492;-55
2021/01/19 05:01:52;;;;;;;4.13;2.20;;;5.20;99.90;;;;;;10362304;28;20060;-54
2021/01/19 05:07:28;;;;;;;6.43;3.25;;;5.30;99.90;;;;;;10363819;28;21637;-55
2021/01/19 05:12:58;;;;;;;7.65;2.83;;;5.30;99.90;;;;;;10361798;28;20045;-55
2021/01/19 05:18:20;;;;;;;5.68;2.35;;;5.30;99.90;;;;;;10360038;28;20038;-55
2021/01/19 05:23:41;;;;;;;7.20;2.65;;;5.40;99.90;;;;;;10360615;28;20049;-55
2021/01/19 05:29:04;;;;;;;5.85;2.20;;;5.40;99.90;;;;;;10358960;28;20130;-55
2021/01/19 05:34:25;;;;;;;6.22;2.45;;;5.50;99.90;;;;;;10362725;28;20788;-55
2021/01/19 05:39:48;;;;;;;5.00;1.88;;;5.50;99.90;;;;;;10361626;28;20162;-55
2021/01/19 05:45:10;;;;;;;6.93;2.25;;;5.50;99.90;;;;;;10358542;28;20108;-54
2021/01/19 05:50:35;;;;;;;5.60;2.70;;;5.50;99.90;;;;;;10376468;28;20080;-55
2021/01/19 05:56:01;;;;;;;4.97;2.55;;;5.60;99.90;;;;;;10363506;28;20183;-55
2021/01/19 06:01:32;;;;;;;5.90;1.98;;;5.60;99.90;;;;;;10370635;28;20037;-55
2021/01/19 06:06:55;;;;;;;9.18;2.47;;;5.60;99.90;;;;;;10369228;28;20758;-55
2021/01/19 06:12:18;;;;;;;4.60;1.83;;;5.70;99.90;;;;;;10358631;28;20045;-54
2021/01/19 06:17:39;;;;;;;2.90;1.65;;;5.70;99.90;;;;;;10365026;28;20042;-54
2021/01/19 06:23:07;;;;;;;4.22;1.50;;;5.70;99.90;;;;;;10368552;28;20038;-54
2021/01/19 06:28:28;;;;;;;4.28;1.80;;;5.80;99.90;;;;;;10370892;28;20705;-54
2021/01/19 06:33:51;;;;;;;4.10;1.80;;;5.90;99.90;;;;;;10370353;28;20414;-54
2021/01/19 06:39:42;;;;;;;5.65;2.83;;;5.90;99.90;;;;;;10364524;28;20500;-54
2021/01/19 06:45:12;;;;;;;7.18;2.67;;;6.00;99.90;;;;;;10368202;28;20038;-54
2021/01/19 06:50:38;;;;;;;;;;;6.00;99.90;;;;;;10364540;28;20089;-54
2021/01/19 06:55:59;;;;;;;5.35;1.48;;;6.20;99.90;;;;;;10367058;28;19917;-54
2021/01/19 07:01:25;;;;;;;2.30;1.08;;;6.40;99.90;;;;;;10378846;28;20041;-54
2021/01/19 07:07:22;;;;;;;2.38;0.80;;;6.50;99.90;;;;;;10367805;28;20037;-54
2021/01/19 07:13:03;;;;;;;1.70;0.80;;;6.60;99.90;;;;;;10349596;28;20041;-54
2021/01/19 07:18:51;;;;;;;2.35;1.30;;;6.60;99.90;;;;;;10365184;28;20095;-53
2021/01/19 07:24:16;;;;;;;2.45;0.98;;;6.60;99.90;;;;;;10363780;28;20494;-55
2021/01/19 07:29:37;;;;;;;6.15;1.42;;;6.70;99.90;;;;;;10362773;28;20078;-52
2021/01/19 07:34:59;;;;;;;2.65;1.52;;;6.70;99.90;;;;;;10364055;28;20578;-52
2021/01/19 07:40:20;;;;;;;1.95;0.77;;;6.70;99.90;;;;;;10367106;28;20071;-53
2021/01/19 07:45:58;;;;;;;4.07;1.17;;;6.70;99.90;;;;;;10361419;28;20045;-52
2021/01/19 07:51:19;;;;;;;1.95;0.73;;;6.80;99.90;;;;;;10379164;28;20124;-52
2021/01/19 07:56:41;;;;;;;4.57;1.05;;;6.80;99.90;;;;;;10362639;28;20037;-53
2021/01/19 08:02:02;;;;;;;1.50;0.75;;;6.90;99.90;;;;;;10343519;28;20045;-53
2021/01/19 08:07:23;;;;;;;1.40;0.73;;;6.90;99.90;;;;;;10362067;28;20040;-52
2021/01/19 08:12:45;;;;;;;5.47;1.38;;;6.90;99.90;;;;;;10361989;28;20061;-53
2021/01/19 08:18:16;;;;;;;2.60;0.90;;;7.00;99.90;;;;;;10362528;28;20042;-53
2021/01/19 08:23:38;;;;;;;3.97;1.00;;;7.10;99.90;;;;;;10369037;28;20042;-53
2021/01/19 08:29:04;;;;;;;2.72;0.80;;;7.10;99.90;;;;;;10364465;28;20038;-52
2021/01/19 08:34:26;;;;;;;3.95;1.20;;;7.20;99.90;;;;;;10363129;28;20050;-52
2021/01/19 08:39:54;;;;;;;1.05;0.40;;;7.20;99.90;;;;;;10368674;28;20037;-53
2021/01/19 08:45:29;;;;;;;1.38;0.70;;;7.20;99.90;;;;;;10364090;28;20038;-52
2021/01/19 08:50:50;;;;;;;1.70;0.50;;;7.30;99.90;;;;;;10367442;28;20046;-53
2021/01/19 08:56:24;;;;;;;3.00;0.80;;;7.30;99.90;;;;;;10366551;28;20504;-53
2021/01/19 09:01:49;;;;;;;3.60;1.13;;;7.30;99.90;;;;;;10363051;28;20054;-53
2021/01/19 09:07:11;;;;;;;1.60;0.47;;;7.40;99.90;;;;;;10362051;28;20421;-53
2021/01/19 09:12:32;;;;;;;2.40;0.90;;;7.40;99.90;;;;;;10360502;28;20050;-54
2021/01/19 09:17:55;;;;;;;1.48;0.55;;;7.60;99.90;;;;;;10360005;28;20022;-53
2021/01/19 09:23:17;;;;;;;3.22;0.95;;;7.60;99.90;;;;;;10364486;28;20064;-53
2021/01/19 09:28:38;;;;;;;2.22;0.88;;;7.70;99.90;;;;;;10363638;28;20045;-54
2021/01/19 09:33:59;;;;;;;1.60;0.73;;;7.70;99.90;;;;;;10375788;28;20050;-54
2021/01/19 09:39:28;;;;;;;2.38;0.80;;;7.90;99.90;;;;;;10360092;28;20054;-54
2021/01/19 09:44:50;;;;;;;2.35;0.70;;;8.00;99.90;;;;;;10361169;28;20041;-55
2021/01/19 09:50:11;;;;;;;1.95;0.75;;;8.00;99.90;;;;;;10367141;28;20589;-55
2021/01/19 09:55:32;;;;;;;1.25;0.95;;;8.20;99.90;;;;;;10369280;28;20049;-55
2021/01/19 10:00:54;;;;;;;4.20;0.75;;;8.50;99.90;;;;;;10380557;28;20037;-55
2021/01/19 10:06:24;;;;;;;1.38;0.60;;;8.90;99.90;;;;;;10372736;28;20109;-55
2021/01/19 10:11:45;;;;;;;2.83;1.05;;;9.10;99.90;;;;;;10369057;28;20555;-55
2021/01/19 10:17:07;;;;;;;9.35;0.93;;;9.50;99.90;;;;;;10378177;28;20058;-57
2021/01/19 10:22:29;;;;;;;1.35;0.60;;;9.70;99.90;;;;;;10367377;28;20501;-56
2021/01/19 10:27:56;;;;;;;4.38;0.98;;;9.80;99.90;;;;;;10370510;28;20121;-56
2021/01/19 10:33:27;;;;;;;2.28;0.95;;;9.80;99.90;;;;;;10368696;28;20041;-56
2021/01/19 10:38:48;;;;;;;3.33;0.68;;;9.90;99.90;;;;;;10368303;28;20060;-57
2021/01/19 10:44:12;;;;;;;2.53;0.65;;;9.80;99.90;;;;;;10368439;28;20129;-56
2021/01/19 10:49:33;;;;;;;8.20;1.25;;;9.90;99.90;;;;;;10368403;28;20080;-56
2021/01/19 10:54:55;;;;;;;1.27;0.82;;;9.90;99.90;;;;;;10370571;28;20401;-56
2021/01/19 11:00:16;;;;;;;1.73;0.40;;;9.90;99.90;;;;;;10368866;28;20041;-56
2021/01/19 11:05:37;;;;;;;2.17;1.23;;;9.90;99.90;;;;;;10369239;28;20085;-56
2021/01/19 11:10:58;;;;;;;1.27;0.77;;;10.00;99.90;;;;;;10371081;28;20037;-56
2021/01/19 11:16:19;;;;;;;1.50;0.43;;;10.00;99.90;;;;;;10365863;28;20087;-56
2021/01/19 11:21:42;;;;;;;1.98;0.40;;;9.90;99.90;;;;;;10366448;28;20405;-57
2021/01/19 11:27:03;;;;;;;2.85;0.43;;;10.00;99.90;;;;;;10372082;28;20045;-56
2021/01/19 11:32:25;;;;;;;1.33;0.28;;;10.00;99.90;;;;;;10367959;28;20427;-57
2021/01/19 11:37:46;;;;;;;1.92;0.40;;;9.90;99.90;;;;;;10382701;28;20047;-56
2021/01/19 11:43:07;;;;;;;9.88;1.13;;;10.00;99.90;;;;;;10372079;28;20049;-56
2021/01/19 11:48:28;;;;;;;2.47;1.17;;;10.10;99.90;;;;;;10366433;28;20060;-56
2021/01/19 11:53:51;;;;;;;0.85;0.30;;;10.20;99.90;;;;;;10370573;28;20046;-56
2021/01/19 11:59:12;;;;;;;4.88;1.13;;;10.20;99.90;;;;;;10373994;28;20049;-55
2021/01/19 12:04:33;;;;;;;8.50;2.03;;;10.20;99.90;;;;;;10378727;28;20065;-56
2021/01/19 12:09:54;;;;;;;4.55;0.98;;;10.30;99.90;;;;;;10387694;28;20048;-56
2021/01/19 12:15:16;;;;;;;11.52;1.67;;;10.30;99.90;;;;;;10366775;28;20038;-56
2021/01/19 12:20:38;;;;;;;3.75;1.00;;;10.30;99.90;;;;;;10368535;28;20045;-56
2021/01/19 12:25:59;;;;;;;2.83;1.02;;;10.40;99.90;;;;;;10362268;28;20030;-56
2021/01/19 12:31:20;;;;;;;2.35;1.45;;;10.50;99.90;;;;;;10360171;28;20103;-58
2021/01/19 12:36:42;;;;;;;0.90;0.35;;;10.50;99.90;;;;;;10366456;28;20410;-56
2021/01/19 12:42:03;;;;;;;1.90;0.55;;;10.50;99.90;;;;;;10365031;28;20164;-56
2021/01/19 12:47:25;;;;;;;4.53;0.68;;;10.50;99.90;;;;;;10365467;28;20164;-56
2021/01/19 12:52:46;;;;;;;11.38;1.63;;;10.50;99.90;;;;;;10364574;28;20124;-56
2021/01/19 12:58:07;;;;;;;0.80;0.50;;;10.40;99.90;;;;;;10363463;28;20026;-56
2021/01/19 13:03:28;;;;;;;5.63;0.73;;;10.50;99.90;;;;;;10364911;28;20771;-56
2021/01/19 13:08:49;;;;;;;4.75;0.90;;;10.50;99.90;;;;;;10361151;28;20563;-56
2021/01/19 13:14:10;;;;;;;1.83;0.30;;;10.50;99.90;;;;;;10361656;28;20042;-56
2021/01/19 13:19:30;;;;;;;6.43;1.25;;;10.40;99.90;;;;;;10362889;28;20045;-56
2021/01/19 13:24:52;;;;;;;0.55;0.30;;;10.50;99.90;;;;;;10373809;28;20046;-55
2021/01/19 13:30:14;;;;;;;1.23;0.40;;;10.50;99.90;;;;;;10373373;28;20049;-56
2021/01/19 13:35:35;;;;;;;7.80;1.25;;;10.40;99.90;;;;;;10387247;28;20825;-55
2021/01/19 13:40:56;;;;;;;5.60;0.57;;;10.50;99.90;;;;;;10370560;28;20042;-55
2021/01/19 13:46:17;;;;;;;3.80;0.63;;;10.50;99.90;;;;;;10374663;28;20548;-56
2021/01/19 13:51:38;;;;;;;2.17;0.80;;;10.50;99.90;;;;;;10370924;28;20057;-55
2021/01/19 13:56:59;;;;;;;1.45;0.50;;;10.50;99.90;;;;;;10368617;28;20041;-56
2021/01/19 14:02:20;;;;;;;4.40;0.63;;;10.60;99.90;;;;;;10368898;28;20076;-55
2021/01/19 14:07:41;;;;;;;1.02;0.20;;;10.50;99.90;;;;;;10373952;28;20832;-56
2021/01/19 14:13:02;;;;;;;5.28;0.80;;;10.40;99.90;;;;;;10369634;28;20089;-56
2021/01/19 14:18:23;;;;;;;1.35;0.40;;;10.40;99.90;;;;;;10371100;28;20030;-56
2021/01/19 14:23:44;;;;;;;8.43;1.00;;;10.40;99.90;;;;;;10370477;28;20387;-56
2021/01/19 14:29:05;;;;;;;2.67;1.35;;;10.50;99.90;;;;;;10383230;28;20032;-56
2021/01/19 14:34:26;;;;;;;1.63;0.40;;;10.50;99.90;;;;;;10368237;28;20049;-56
2021/01/19 14:39:47;;;;;;;4.65;0.70;;;10.50;99.90;;;;;;10369001;28;20042;-55
2021/01/19 14:45:09;;;;;;;1.85;0.22;;;10.50;99.90;;;;;;10369997;28;20038;-55
2021/01/19 14:50:30;;;;;;;1.60;0.40;;;10.50;99.90;;;;;;10369304;28;20081;-55
2021/01/19 14:55:51;;;;;;;1.38;0.60;;;10.50;99.90;;;;;;10369575;28;20057;-55
2021/01/19 15:01:12;;;;;;;2.40;0.30;;;10.50;99.90;;;;;;10366069;28;20100;-55
2021/01/19 15:06:53;;;;;;;3.47;1.00;;;10.40;99.90;;;;;;10366299;28;20034;-55
2021/01/19 15:12:14;;;;;;;3.78;0.22;;;10.40;99.90;;;;;;10378731;28;20068;-55
2021/01/19 15:17:35;;;;;;;16.00;0.50;;;10.30;99.90;;;;;;10368383;28;20040;-55
2021/01/19 15:22:56;;;;;;;0.20;0.00;;;10.30;99.90;;;;;;10366223;28;20077;-55
2021/01/19 15:28:17;;;;;;;4.72;0.47;;;10.20;99.90;;;;;;10366772;28;20483;-55
2021/01/19 15:33:38;;;;;;;0.93;0.20;;;10.20;99.90;;;;;;10367744;28;20065;-55
2021/01/19 15:38:59;;;;;;;1.95;0.30;;;10.20;99.90;;;;;;10366869;28;20041;-55
2021/01/19 15:44:20;;;;;;;0.80;0.20;;;10.10;99.90;;;;;;10369408;28;20069;-55
2021/01/19 15:49:41;;;;;;;0.10;0.00;;;10.10;99.90;;;;;;10361400;28;20614;-55
2021/01/19 15:55:03;;;;;;;0.60;0.28;;;10.00;99.90;;;;;;10366117;28;20393;-55
2021/01/19 16:00:25;;;;;;;0.95;0.75;;;10.10;99.90;;;;;;10368357;28;20033;-55
2021/01/19 16:05:55;;;;;;;1.15;0.32;;;10.00;99.90;;;;;;10364891;28;20366;-55
2021/01/19 16:11:16;;;;;;;5.90;0.65;;;10.00;99.90;;;;;;10365353;28;20041;-55
2021/01/19 16:16:37;;;;;;;0.70;0.20;;;9.90;99.90;;;;;;10365806;28;20049;-55
2021/01/19 16:21:58;;;;;;;1.40;0.80;;;9.90;99.90;;;;;;10363460;28;20044;-55
2021/01/19 16:27:19;;;;;;;1.77;0.52;;;9.80;99.90;;;;;;10361052;28;20212;-55
2021/01/19 16:32:40;;;;;;;3.55;0.43;;;9.90;99.90;;;;;;10374585;28;20168;-55
2021/01/19 16:38:01;;;;;;;10.35;0.50;;;9.90;99.90;;;;;;10363269;28;20065;-57
2021/01/19 16:43:22;;;;;;;1.95;0.40;;;9.90;99.90;;;;;;10364394;28;20042;-55
2021/01/19 16:48:47;;;;;;;0.50;0.22;;;9.90;99.90;;;;;;10363281;28;20041;-54
2021/01/19 16:54:08;;;;;;;3.05;0.77;;;9.80;99.90;;;;;;10360327;28;20122;-54
2021/01/19 16:59:29;;;;;;;0.88;0.20;;;9.90;99.90;;;;;;10362393;28;20042;-54
2021/01/19 17:04:50;;;;;;;3.65;0.90;;;9.90;99.90;;;;;;10358179;28;20053;-54
2021/01/19 17:10:11;;;;;;;2.58;0.28;;;9.90;99.90;;;;;;10361731;28;20121;-54
2021/01/19 17:15:32;;;;;;;1.02;0.43;;;9.80;99.90;;;;;;10362622;28;20214;-54
2021/01/19 17:20:54;;;;;;;4.72;0.52;;;9.80;99.90;;;;;;10359969;28;20084;-54
2021/01/19 17:26:15;;;;;;;1.85;0.75;;;9.80;99.90;;;;;;10364275;28;20033;-54
2021/01/19 17:31:44;;;;;;;1.52;0.73;;;9.80;99.90;;;;;;10358932;28;20152;-54
2021/01/19 17:37:05;;;;;;;1.58;0.50;;;9.70;99.90;;;;;;10363013;28;20041;-54
2021/01/19 17:42:26;;;;;;;3.42;0.70;;;9.70;99.90;;;;;;10368354;28;20039;-54
2021/01/19 17:47:47;;;;;;;3.35;0.98;;;9.70;99.90;;;;;;10362132;28;20042;-54
2021/01/19 17:53:09;;;;;;;3.72;0.80;;;9.70;99.90;;;;;;10360940;28;20061;-54
2021/01/19 17:58:30;;;;;;;3.83;0.73;;;9.60;99.90;;;;;;10360168;28;20053;-54
2021/01/19 18:03:54;;;;;;;3.53;0.65;;;9.60;99.90;;;;;;10362269;28;20042;-54
2021/01/19 18:09:15;;;;;;;1.83;0.60;;;9.60;99.90;;;;;;10360016;28;20108;-54
2021/01/19 18:14:36;;;;;;;1.10;0.50;;;9.60;99.90;;;;;;10366794;28;20439;-54
2021/01/19 18:19:57;;;;;;;0.73;0.30;;;9.50;99.90;;;;;;10365191;28;20041;-53
2021/01/19 18:25:18;;;;;;;2.20;0.73;;;9.40;99.90;;;;;;10366866;28;20060;-54
2021/01/19 18:30:39;;;;;;;2.38;0.65;;;9.40;99.90;;;;;;10364835;28;20041;-54
2021/01/19 18:36:00;;;;;;;1.23;0.50;;;9.30;99.90;;;;;;10366445;28;20446;-53
2021/01/19 18:41:23;;;;;;;9.32;0.47;;;9.40;99.90;;;;;;10363272;28;20048;-53
2021/01/19 18:46:47;;;;;;;3.38;0.47;;;9.40;99.90;;;;;;10366817;28;20092;-54
2021/01/19 18:52:08;;;;;;;0.47;0.20;;;9.30;99.90;;;;;;10366467;28;20077;-53
2021/01/19 18:57:29;;;;;;;0.70;0.30;;;9.30;99.90;;;;;;10365510;28;20092;-54
2021/01/19 19:02:50;;;;;;;1.77;0.32;;;9.30;99.90;;;;;;10365170;28;20045;-54
2021/01/19 19:08:11;;;;;;;1.08;0.50;;;9.30;99.90;;;;;;10363699;28;20049;-54
2021/01/19 19:13:32;;;;;;;1.67;0.50;;;9.30;99.90;;;;;;10367688;28;20056;-54
2021/01/19 19:18:53;;;;;;;1.40;0.40;;;9.20;99.90;;;;;;10360773;28;20047;-53
2021/01/19 19:24:15;;;;;;;2.72;1.13;;;9.10;99.90;;;;;;10361551;28;20076;-54
2021/01/19 19:29:37;;;;;;;1.63;0.60;;;9.10;99.90;;;;;;10353079;28;20042;-53
2021/01/19 19:34:58;;;;;;;6.72;0.50;;;9.00;99.90;;;;;;10353078;28;20064;-53
2021/01/19 19:40:19;;;;;;;2.85;0.75;;;9.00;99.90;;;;;;10352350;28;20993;-54
2021/01/19 19:45:40;;;;;;;3.33;1.50;;;9.00;99.90;;;;;;10355078;28;20358;-53
2021/01/19 19:51:01;;;;;;;5.43;1.65;;;9.00;99.90;;;;;;10352876;28;20137;-53
2021/01/19 19:56:22;;;;;;;5.18;1.77;;;9.00;99.90;;;;;;10363726;28;20046;-53
2021/01/19 20:01:43;;;;;;;4.30;1.73;;;8.90;99.90;;;;;;10354360;28;20485;-53
2021/01/19 20:07:05;;;;;;;5.15;1.95;;;8.90;99.90;;;;;;10352860;28;20044;-54
2021/01/19 20:12:30;;;;;;;8.00;2.22;;;8.90;99.90;;;;;;10349722;28;20033;-53
2021/01/19 20:17:50;;;;;;;29.90;1.77;;;8.80;99.90;;;;;;10349073;28;20103;-54
2021/01/19 20:23:11;;;;;;;3.45;1.63;;;8.80;99.90;;;;;;10354223;28;20073;-53
2021/01/19 20:28:33;;;;;;;4.00;1.52;;;8.80;99.90;;;;;;10352005;28;20465;-53
2021/01/19 20:33:55;;;;;;;4.88;1.75;;;8.80;99.90;;;;;;10354378;28;20048;-53
2021/01/19 20:39:16;;;;;;;4.03;1.85;;;8.80;99.90;;;;;;10351182;28;20453;-53
2021/01/19 20:44:37;;;;;;;5.70;1.88;;;8.70;99.90;;;;;;10351616;28;20050;-53
2021/01/19 20:49:58;;;;;;;3.28;1.52;;;8.60;99.90;;;;;;10352651;28;20050;-53
2021/01/19 20:55:19;;;;;;;6.90;1.77;;;8.50;99.90;;;;;;10354405;28;20539;-54
2021/01/19 21:00:40;;;;;;;8.00;2.55;;;8.40;99.90;;;;;;10350971;28;20146;-53
2021/01/19 21:06:00;;;;;;;5.55;2.00;;;8.20;99.90;;;;;;10350176;28;20457;-53
2021/01/19 21:11:22;;;;;;;6.45;2.75;;;8.10;99.90;;;;;;10354668;28;20136;-54
2021/01/19 21:16:43;;;;;;;3.92;1.90;;;8.00;99.90;;;;;;10351085;28;20054;-54
2021/01/19 21:22:04;;;;;;;4.03;1.63;;;8.00;99.90;;;;;;10352812;28;20532;-54
2021/01/19 21:27:25;;;;;;;8.48;1.67;;;7.90;99.90;;;;;;10356829;28;20045;-54
2021/01/19 21:32:51;;;;;;;5.38;1.67;;;7.90;99.90;;;;;;10351078;28;20037;-54
2021/01/19 21:38:13;;;;;;;7.30;2.60;;;7.90;99.90;;;;;;10348775;28;20390;-54
2021/01/19 21:43:34;;;;;;;5.57;1.92;;;7.80;99.90;;;;;;10349701;28;20132;-54
2021/01/19 21:48:55;;;;;;;4.20;1.35;;;7.80;99.90;;;;;;10352721;28;20099;-53
2021/01/19 21:54:16;;;;;;;5.25;2.03;;;7.80;99.90;;;;;;10358379;28;20041;-53
2021/01/19 21:59:37;;;;;;;4.55;2.28;;;7.80;99.90;;;;;;10361192;28;20038;-53
2021/01/19 22:04:58;;;;;;;3.55;1.83;;;7.80;99.90;;;;;;10359612;28;20076;-53
2021/01/19 22:10:20;;;;;;;6.18;2.30;;;7.80;99.90;;;;;;10362401;28;20075;-53
2021/01/19 22:15:41;;;;;;;6.18;2.05;;;7.80;99.90;;;;;;10369701;28;20041;-53
2021/01/19 22:21:02;;;;;;;6.00;1.90;;;7.80;99.90;;;;;;10356427;28;20055;-54
2021/01/19 22:26:23;;;;;;;5.35;1.70;;;7.90;99.90;;;;;;10365066;28;20040;-53
2021/01/19 22:31:44;;;;;;;6.28;1.80;;;7.80;99.90;;;;;;10361516;28;20099;-53
2021/01/19 22:37:05;;;;;;;5.38;2.28;;;7.80;99.90;;;;;;10364153;28;20493;-53
2021/01/19 22:42:26;;;;;;;7.80;3.10;;;7.80;99.90;;;;;;10361062;28;20474;-53
2021/01/19 22:47:47;;;;;;;4.20;1.73;;;7.70;99.90;;;;;;10360888;28;20037;-53
2021/01/19 22:53:07;;;;;;;9.38;2.75;;;7.70;99.90;;;;;;10357200;28;20171;-53
2021/01/19 22:58:29;;;;;;;5.80;2.50;;;7.80;99.90;;;;;;10358896;28;20069;-53
2021/01/19 23:03:49;;;;;;;5.78;2.47;;;7.80;99.90;;;;;;10362688;28;20111;-53
2021/01/19 23:09:10;;;;;;;4.43;1.95;;;7.80;99.90;;;;;;10363418;28;20049;-53
2021/01/19 23:14:32;;;;;;;6.75;2.47;;;7.80;99.90;;;;;;10363458;28;20096;-53
2021/01/19 23:19:53;;;;;;;7.63;2.40;;;7.80;99.90;;;;;;10361964;28;20065;-54
2021/01/19 23:25:14;;;;;;;3.92;1.75;;;7.80;99.90;;;;;;10358360;28;20702;-54
2021/01/19 23:30:35;;;;;;;3.88;1.35;;;7.80;99.90;;;;;;10357188;28;20061;-53
2021/01/19 23:35:57;;;;;;;5.55;2.33;;;7.80;99.90;;;;;;10354333;28;20323;-53
2021/01/19 23:41:18;;;;;;;7.47;2.08;;;7.80;99.90;;;;;;10364690;28;20033;-54
2021/01/19 23:46:38;;;;;;;5.90;2.00;;;7.70;99.90;;;;;;10364856;28;20049;-53
2021/01/19 23:51:59;;;;;;;6.57;2.15;;;7.70;99.90;;;;;;10362726;28;20065;-53
2021/01/19 23:57:20;;;;;;;4.13;1.63;;;7.70;99.90;;;;;;10361753;28;20037;-53
